createdAt,value
2023-05-02T00:02:11.082Z,14.00
2023-05-02T00:04:39.282Z,16.00
2023-05-02T00:07:07.108Z,14.25
2023-05-02T00:09:34.745Z,18.00
2023-05-02T00:12:02.996Z,16.00
2023-05-02T00:14:30.854Z,19.00
2023-05-02T00:16:58.543Z,19.25
2023-05-02T00:19:26.130Z,16.00
2023-05-02T00:21:53.724Z,20.75
2023-05-02T00:24:21.370Z,19.00
2023-05-02T00:26:49.868Z,20.75
2023-05-02T00:29:18.245Z,13.25
2023-05-02T00:31:45.864Z,20.00
2023-05-02T00:34:13.489Z,14.75
2023-05-02T00:36:41.531Z,12.75
2023-05-02T00:39:09.890Z,17.25
2023-05-02T00:41:37.546Z,22.00
2023-05-02T00:44:05.124Z,16.50
2023-05-02T00:46:32.787Z,15.25
2023-05-02T00:49:01.071Z,23.00
2023-05-02T00:51:29.059Z,13.50
2023-05-02T00:53:57.909Z,20.50
2023-05-02T00:56:25.489Z,24.25
2023-05-02T00:58:53.095Z,18.50
2023-05-02T01:01:20.765Z,22.50
2023-05-02T01:03:48.670Z,18.00
2023-05-02T01:06:16.862Z,24.50
2023-05-02T01:08:44.529Z,22.25
2023-05-02T01:11:12.269Z,25.25
2023-05-02T01:13:39.849Z,21.25
2023-05-02T01:16:07.903Z,26.00
2023-05-02T01:18:35.793Z,19.50
2023-05-02T01:21:03.384Z,24.50
2023-05-02T01:23:30.993Z,27.50
2023-05-02T01:25:58.949Z,30.00
2023-05-02T01:28:26.499Z,16.75
2023-05-02T01:30:54.909Z,27.25
2023-05-02T01:33:22.774Z,26.25
2023-05-02T01:35:50.356Z,16.25
2023-05-02T01:38:18.464Z,24.75
2023-05-02T01:40:46.074Z,26.75
2023-05-02T01:43:13.635Z,24.50
2023-05-02T01:45:41.228Z,26.00
2023-05-02T01:48:09.086Z,24.25
2023-05-02T01:50:37.403Z,23.75
2023-05-02T01:53:05.093Z,28.00
2023-05-02T01:55:32.999Z,23.00
2023-05-02T01:58:01.164Z,17.50
2023-05-02T02:00:28.768Z,18.25
2023-05-02T02:02:56.376Z,25.50
2023-05-02T02:05:23.932Z,21.25
2023-05-02T02:07:51.620Z,24.25
2023-05-02T02:10:19.218Z,26.50
2023-05-02T02:12:46.761Z,32.25
2023-05-02T02:15:14.722Z,23.75
2023-05-02T02:17:43.970Z,31.75
2023-05-02T02:20:11.577Z,22.50
2023-05-02T02:22:39.203Z,28.75
2023-05-02T02:25:06.882Z,20.00
2023-05-02T02:27:34.817Z,28.25
2023-05-02T02:30:02.744Z,16.00
2023-05-02T02:32:30.849Z,22.25
2023-05-02T02:34:59.603Z,31.25
2023-05-02T02:37:27.344Z,23.50
2023-05-02T02:39:55.293Z,22.00
2023-05-02T02:42:22.855Z,22.00
2023-05-02T02:44:50.472Z,24.25
2023-05-02T02:47:18.010Z,26.75
2023-05-02T02:49:45.852Z,26.50
2023-05-02T02:52:13.825Z,27.50
2023-05-02T02:54:41.490Z,27.25
2023-05-02T02:57:09.137Z,23.00
2023-05-02T02:59:36.905Z,23.00
2023-05-02T03:02:05.375Z,31.00
2023-05-02T03:04:33.400Z,23.75
2023-05-02T03:07:00.987Z,32.25
2023-05-02T03:09:30.511Z,26.50
2023-05-02T03:11:58.106Z,23.00
2023-05-02T03:14:25.813Z,15.50
2023-05-02T03:16:53.777Z,34.75
2023-05-02T03:19:21.509Z,18.00
2023-05-02T03:21:49.132Z,23.75
2023-05-02T03:24:19.587Z,25.75
2023-05-02T03:26:47.771Z,30.25
2023-05-02T03:29:16.216Z,26.75
2023-05-02T03:31:44.033Z,24.25
2023-05-02T03:34:11.659Z,25.00
2023-05-02T03:36:39.266Z,30.25
2023-05-02T03:39:06.853Z,15.75
2023-05-02T03:41:34.815Z,22.00
2023-05-02T03:44:02.733Z,27.00
2023-05-02T03:46:30.699Z,19.50
2023-05-02T03:48:58.371Z,25.25
2023-05-02T03:51:25.957Z,23.00
2023-05-02T03:53:53.894Z,20.00
2023-05-02T03:56:21.645Z,20.75
2023-05-02T03:58:49.302Z,17.50
2023-05-02T04:01:16.890Z,16.75
2023-05-02T04:03:44.566Z,15.50
2023-05-02T04:06:13.517Z,19.50
2023-05-02T04:08:41.184Z,16.50
2023-05-02T04:11:08.777Z,21.00
2023-05-02T04:13:36.413Z,15.00
2023-05-02T04:16:04.693Z,11.75
2023-05-02T04:18:32.791Z,19.00
2023-05-02T04:21:00.480Z,14.50
2023-05-02T04:23:28.057Z,18.50
2023-05-02T04:25:56.391Z,23.50
2023-05-02T04:28:24.309Z,16.00
2023-05-02T04:30:51.950Z,17.50
2023-05-02T04:33:20.044Z,8.00
2023-05-02T04:35:47.740Z,19.00
2023-05-02T04:38:15.381Z,11.00
2023-05-02T04:40:42.985Z,7.50
2023-05-02T04:43:11.009Z,17.25
2023-05-02T04:45:38.814Z,14.50
2023-05-02T04:48:06.484Z,15.25
2023-05-02T04:50:34.706Z,4.25
2023-05-02T04:53:02.667Z,14.00
2023-05-02T04:55:30.660Z,6.50
2023-05-02T04:57:58.624Z,13.00
2023-05-02T05:00:26.197Z,13.00
2023-05-02T05:02:53.838Z,13.50
2023-05-02T05:05:21.603Z,15.75
2023-05-02T05:07:49.623Z,6.50
2023-05-02T05:10:17.664Z,8.75
2023-05-02T05:12:46.890Z,14.00
2023-05-02T05:15:14.470Z,10.50
2023-05-02T05:17:42.234Z,17.00
2023-05-02T05:20:10.722Z,10.00
2023-05-02T05:22:38.700Z,12.50
2023-05-02T05:25:06.348Z,12.25
2023-05-02T05:27:34.022Z,10.00
2023-05-02T05:30:02.003Z,19.00
2023-05-02T05:32:30.284Z,11.50
2023-05-02T05:34:59.442Z,13.50
2023-05-02T05:37:27.053Z,15.00
2023-05-02T05:39:54.699Z,10.00
2023-05-02T05:42:22.398Z,8.25
2023-05-02T05:44:50.444Z,6.50
2023-05-02T05:47:18.417Z,10.75
2023-05-02T05:49:46.305Z,11.25
2023-05-02T05:52:13.979Z,13.00
2023-05-02T05:54:41.637Z,12.75
2023-05-02T05:57:10.984Z,8.75
2023-05-02T05:59:38.609Z,12.75
2023-05-02T06:02:06.786Z,14.50
2023-05-02T06:04:34.547Z,12.75
2023-05-02T06:07:02.163Z,8.75
2023-05-02T06:09:29.882Z,11.50
2023-05-02T06:11:57.850Z,14.50
2023-05-02T06:14:25.504Z,8.00
2023-05-02T06:16:53.129Z,6.00
2023-05-02T06:19:21.204Z,2.50
2023-05-02T06:21:48.859Z,8.00
2023-05-02T06:24:16.504Z,2.00
2023-05-02T06:26:44.216Z,3.25
2023-05-02T06:29:11.812Z,3.50
2023-05-02T06:31:39.634Z,3.00
2023-05-02T06:34:07.482Z,3.25
2023-05-02T06:36:35.104Z,3.00
2023-05-02T06:39:02.905Z,3.50
2023-05-02T06:41:30.592Z,3.75
2023-05-02T06:43:58.493Z,6.00
2023-05-02T06:46:26.400Z,4.00
2023-05-02T06:48:54.559Z,0.00
2023-05-02T06:51:22.674Z,3.25
2023-05-02T06:53:50.474Z,4.00
2023-05-02T06:56:18.349Z,3.50
2023-05-02T06:58:46.364Z,2.00
2023-05-02T07:01:14.129Z,3.75
2023-05-02T07:03:42.402Z,3.25
2023-05-02T07:06:10.205Z,5.00
2023-05-02T07:08:37.931Z,0.75
2023-05-02T07:11:05.863Z,3.00
2023-05-02T07:13:33.630Z,4.25
2023-05-02T07:16:01.451Z,6.00
2023-05-02T07:18:29.374Z,3.75
2023-05-02T07:20:57.047Z,1.00
2023-05-02T07:23:25.486Z,3.75
2023-05-02T07:25:54.214Z,4.00
2023-05-02T07:28:22.080Z,3.00
2023-05-02T07:30:49.876Z,2.00
2023-05-02T07:33:17.801Z,3.25
2023-05-02T07:35:46.233Z,4.00
2023-05-02T07:38:14.342Z,6.50
2023-05-02T07:40:42.150Z,6.00
2023-05-02T07:43:11.294Z,4.00
2023-05-02T07:45:39.166Z,6.00
2023-05-02T07:48:07.923Z,6.00
2023-05-02T07:50:35.900Z,3.00
2023-05-02T07:53:03.822Z,0.00
2023-05-02T07:55:33.530Z,3.00
2023-05-02T07:58:01.167Z,2.00
2023-05-02T08:00:29.298Z,3.50
2023-05-02T08:02:57.966Z,4.50
2023-05-02T08:05:25.861Z,4.00
2023-05-02T08:07:53.582Z,4.00
2023-05-02T08:10:21.537Z,5.00
2023-05-02T08:12:49.232Z,3.00
2023-05-02T08:15:17.063Z,6.00
2023-05-02T08:17:45.022Z,5.50
2023-05-02T08:20:12.743Z,4.00
2023-05-02T08:22:40.400Z,1.00
2023-05-02T08:25:08.658Z,1.00
2023-05-02T08:27:37.219Z,2.50
2023-05-02T08:30:05.321Z,1.00
2023-05-02T08:32:36.606Z,0.00
2023-05-02T08:35:04.476Z,1.00
2023-05-02T08:37:33.019Z,0.75
2023-05-02T08:40:01.280Z,1.00
2023-05-02T08:42:29.376Z,4.50
2023-05-02T08:44:57.147Z,1.00
2023-05-02T08:47:25.397Z,4.00
2023-05-02T08:49:53.755Z,3.00
2023-05-02T08:52:22.007Z,3.50
2023-05-02T08:54:51.866Z,3.50
2023-05-02T08:57:19.671Z,5.00
2023-05-02T08:59:48.979Z,4.00
2023-05-02T09:02:17.261Z,4.00
2023-05-02T09:04:45.031Z,3.50
2023-05-02T09:07:12.842Z,0.50
2023-05-02T09:09:40.990Z,3.75
2023-05-02T09:12:08.723Z,6.00
2023-05-02T09:14:36.658Z,2.00
2023-05-02T09:17:05.527Z,3.00
2023-05-02T09:19:33.379Z,3.50
2023-05-02T09:22:01.483Z,1.00
2023-05-02T09:24:29.474Z,3.00
2023-05-02T09:26:57.794Z,3.25
2023-05-02T09:29:25.847Z,3.75
2023-05-02T09:31:55.987Z,6.00
2023-05-02T09:34:24.640Z,3.25
2023-05-02T09:36:54.772Z,5.50
2023-05-02T09:39:25.432Z,4.00
2023-05-02T09:41:54.605Z,6.50
2023-05-02T09:44:22.613Z,3.25
2023-05-02T09:46:50.434Z,4.50
2023-05-02T09:49:19.733Z,6.00
2023-05-02T09:51:48.099Z,4.00
2023-05-02T09:54:16.256Z,5.00
2023-05-02T09:56:44.089Z,3.50
2023-05-02T09:59:12.129Z,3.00
2023-05-02T10:01:39.928Z,2.00
2023-05-02T10:04:08.305Z,3.25
2023-05-02T10:06:36.454Z,6.50
2023-05-02T10:09:04.223Z,3.50
2023-05-02T10:11:32.094Z,2.00
2023-05-02T10:14:00.134Z,1.00
2023-05-02T10:16:29.473Z,3.75
2023-05-02T10:18:57.502Z,3.00
2023-05-02T10:21:25.357Z,3.75
2023-05-02T10:23:53.600Z,4.00
2023-05-02T10:26:22.373Z,3.25
2023-05-02T10:28:50.505Z,4.00
2023-05-02T10:31:18.328Z,3.50
2023-05-02T10:33:46.349Z,4.00
2023-05-02T10:36:14.471Z,3.00
2023-05-02T10:38:42.417Z,3.50
2023-05-02T10:41:10.797Z,3.00
2023-05-02T10:43:39.389Z,5.00
2023-05-02T10:46:07.329Z,6.50
2023-05-02T10:48:35.249Z,3.00
2023-05-02T10:51:03.219Z,3.75
2023-05-02T10:53:31.289Z,4.00
2023-05-02T10:55:59.379Z,3.00
2023-05-02T10:58:27.296Z,3.25
2023-05-02T11:00:55.213Z,3.50
2023-05-02T11:03:25.063Z,3.00
2023-05-02T11:05:53.141Z,3.25
2023-05-02T11:08:23.237Z,7.00
2023-05-02T11:10:51.378Z,3.00
2023-05-02T11:13:19.196Z,6.25
2023-05-02T11:15:47.474Z,4.00
2023-05-02T11:18:16.950Z,4.00
2023-05-02T11:20:44.886Z,5.50
2023-05-02T11:23:12.737Z,4.50
2023-05-02T11:25:43.916Z,6.25
2023-05-02T11:28:11.752Z,3.00
2023-05-02T11:30:40.384Z,5.50
2023-05-02T11:33:08.783Z,4.50
2023-05-02T11:35:36.890Z,3.75
2023-05-02T11:38:04.882Z,2.50
2023-05-02T11:40:32.828Z,4.50
2023-05-02T11:43:01.233Z,3.25
2023-05-02T11:45:29.489Z,4.00
2023-05-02T11:47:58.950Z,3.00
2023-05-02T11:50:27.843Z,4.25
2023-05-02T11:52:55.565Z,3.75
2023-05-02T11:55:23.478Z,3.75
2023-05-02T11:57:51.779Z,7.00
2023-05-02T12:00:19.920Z,6.00
2023-05-02T12:02:47.939Z,1.75
2023-05-02T12:05:16.088Z,4.00
2023-05-02T12:07:45.434Z,4.00
2023-05-02T12:10:14.849Z,6.25
2023-05-02T12:12:42.581Z,9.25
2023-05-02T12:15:10.470Z,5.25
2023-05-02T12:17:38.449Z,6.00
2023-05-02T12:20:06.823Z,7.00
2023-05-02T12:22:34.733Z,1.50
2023-05-02T12:25:04.535Z,5.00
2023-05-02T12:27:33.461Z,5.00
2023-05-02T12:30:01.688Z,3.00
2023-05-02T12:32:31.261Z,2.50
2023-05-02T12:34:59.217Z,4.00
2023-05-02T12:37:27.234Z,5.50
2023-05-02T12:39:55.903Z,5.00
2023-05-02T12:42:23.816Z,6.25
2023-05-02T12:44:53.050Z,1.00
2023-05-02T12:47:21.387Z,6.25
2023-05-02T12:49:49.352Z,5.50
2023-05-02T12:52:17.359Z,6.75
2023-05-02T12:54:46.531Z,3.25
2023-05-02T12:57:14.885Z,5.50
2023-05-02T12:59:42.819Z,6.50
2023-05-02T13:02:10.834Z,8.50
2023-05-02T13:04:39.351Z,3.00
2023-05-02T13:07:07.328Z,6.75
2023-05-02T13:09:35.844Z,6.00
2023-05-02T13:12:06.394Z,6.00
2023-05-02T13:14:34.260Z,5.00
2023-05-02T13:17:02.739Z,6.00
2023-05-02T13:19:31.660Z,4.50
2023-05-02T13:22:00.215Z,3.50
2023-05-02T13:24:28.330Z,5.00
2023-05-02T13:26:56.288Z,4.00
2023-05-02T13:29:24.066Z,4.00
2023-05-02T13:31:51.941Z,7.00
2023-05-02T13:34:20.206Z,4.00
2023-05-02T13:36:48.204Z,3.75
2023-05-02T13:39:16.354Z,5.50
2023-05-02T13:41:44.182Z,6.00
2023-05-02T13:44:11.984Z,4.00
2023-05-02T13:46:40.588Z,4.00
2023-05-02T13:49:08.663Z,3.75
2023-05-02T13:51:36.545Z,4.00
2023-05-02T13:54:04.563Z,6.00
2023-05-02T13:56:32.398Z,7.00
2023-05-02T13:59:02.077Z,4.00
2023-05-02T14:01:30.157Z,3.75
2023-05-02T14:03:58.166Z,1.00
2023-05-02T14:06:26.197Z,4.25
2023-05-02T14:08:54.222Z,6.50
2023-05-02T14:11:22.626Z,7.25
2023-05-02T14:13:50.694Z,5.00
2023-05-02T14:16:18.697Z,7.50
2023-05-02T14:18:46.975Z,8.50
2023-05-02T14:21:14.800Z,7.50
2023-05-02T14:23:43.269Z,10.75
2023-05-02T14:26:11.573Z,9.25
2023-05-02T14:28:41.568Z,4.80
2023-05-02T14:31:09.539Z,5.50
2023-05-02T14:33:37.455Z,7.50
2023-05-02T14:36:05.686Z,3.75
2023-05-02T14:38:33.679Z,3.00
2023-05-02T14:41:02.977Z,6.00
2023-05-02T14:43:30.803Z,6.00
2023-05-02T14:45:59.365Z,3.00
2023-05-02T14:48:28.000Z,4.00
2023-05-02T14:50:56.760Z,6.00
2023-05-02T14:53:24.825Z,7.00
2023-05-02T14:55:52.696Z,7.00
2023-05-02T14:58:20.969Z,6.80
2023-05-02T15:00:49.319Z,7.00
2023-05-02T15:03:18.000Z,8.20
2023-05-02T15:05:45.822Z,8.80
2023-05-02T15:08:13.931Z,8.80
2023-05-02T15:10:41.724Z,9.60
2023-05-02T15:13:10.186Z,7.00
2023-05-02T15:15:38.435Z,5.40
2023-05-02T15:18:06.350Z,9.00
2023-05-02T15:20:34.105Z,8.00
2023-05-02T15:23:03.794Z,7.60
2023-05-02T15:25:33.323Z,7.00
2023-05-02T15:28:02.788Z,8.40
2023-05-02T15:30:30.805Z,13.40
2023-05-02T15:32:58.598Z,8.00
2023-05-02T15:35:26.579Z,10.00
2023-05-02T15:37:54.347Z,5.40
2023-05-02T15:40:22.239Z,5.40
2023-05-02T15:42:50.403Z,7.80
2023-05-02T15:45:18.445Z,12.80
2023-05-02T15:47:47.053Z,12.60
2023-05-02T15:50:15.980Z,11.20
2023-05-02T15:52:44.536Z,9.60
2023-05-02T15:55:12.244Z,9.60
2023-05-02T15:57:40.132Z,7.00
2023-05-02T16:00:08.082Z,8.80
2023-05-02T16:02:36.116Z,7.40
2023-05-02T16:05:04.035Z,7.00
2023-05-02T16:07:32.185Z,8.60
2023-05-02T16:10:00.419Z,10.20
2023-05-02T16:12:28.702Z,10.40
2023-05-02T16:14:57.093Z,10.00
2023-05-02T16:17:25.648Z,10.60
2023-05-02T16:19:53.441Z,7.40
2023-05-02T16:22:21.353Z,6.60
2023-05-02T16:24:49.255Z,10.40
2023-05-02T16:27:17.115Z,9.20
2023-05-02T16:29:45.110Z,9.20
2023-05-02T16:32:18.593Z,9.20
2023-05-02T16:34:46.485Z,8.60
2023-05-02T16:37:14.368Z,10.40
2023-05-02T16:39:42.925Z,9.20
2023-05-02T16:42:11.120Z,8.60
2023-05-02T16:44:39.044Z,10.25
2023-05-02T16:47:06.901Z,10.00
2023-05-02T16:49:35.023Z,7.50
2023-05-02T16:52:03.170Z,9.00
2023-05-02T16:54:31.919Z,7.00
2023-05-02T16:57:03.003Z,9.00
2023-05-02T16:59:30.811Z,7.00
2023-05-02T17:01:58.811Z,4.50
2023-05-02T17:04:26.749Z,7.00
2023-05-02T17:06:54.896Z,12.00
2023-05-02T17:09:22.691Z,9.00
2023-05-02T17:11:51.205Z,6.00
2023-05-02T17:14:19.925Z,6.25
2023-05-02T17:16:48.206Z,9.00
2023-05-02T17:19:16.225Z,6.00
2023-05-02T17:21:44.071Z,9.00
2023-05-02T17:24:11.846Z,7.00
2023-05-02T17:26:39.846Z,6.75
2023-05-02T17:29:08.081Z,4.00
2023-05-02T17:31:38.152Z,5.00
2023-05-02T17:34:07.446Z,6.75
2023-05-02T17:36:35.634Z,4.00
2023-05-02T17:39:04.151Z,5.50
2023-05-02T17:41:32.304Z,7.50
2023-05-02T17:44:00.220Z,8.00
2023-05-02T17:46:28.175Z,9.50
2023-05-02T17:48:56.179Z,10.50
2023-05-02T17:51:24.159Z,6.50
2023-05-02T17:53:52.360Z,7.00
2023-05-02T17:56:20.319Z,6.00
2023-05-02T17:58:48.510Z,7.00
2023-05-02T18:01:17.841Z,5.00
2023-05-02T18:03:46.013Z,8.50
2023-05-02T18:06:15.711Z,6.00
2023-05-02T18:08:43.924Z,6.00
2023-05-02T18:11:11.826Z,6.00
2023-05-02T18:13:39.926Z,4.00
2023-05-02T18:16:07.843Z,8.50
2023-05-02T18:18:36.734Z,5.00
2023-05-02T18:21:06.332Z,6.50
2023-05-02T18:23:34.283Z,7.00
2023-05-02T18:26:02.197Z,10.00
2023-05-02T18:28:30.105Z,9.25
2023-05-02T18:30:58.600Z,9.00
2023-05-02T18:33:26.585Z,10.50
2023-05-02T18:35:54.485Z,7.00
2023-05-02T18:38:22.270Z,6.00
2023-05-02T18:40:50.119Z,4.00
2023-05-02T18:43:18.036Z,6.00
2023-05-02T18:45:45.850Z,6.25
2023-05-02T18:48:13.793Z,4.50
2023-05-02T18:50:41.972Z,3.75
2023-05-02T18:53:09.892Z,3.25
2023-05-02T18:55:37.862Z,5.00
2023-05-02T18:58:06.215Z,3.75
2023-05-02T19:00:36.921Z,4.50
2023-05-02T19:03:05.605Z,4.50
2023-05-02T19:05:35.098Z,6.75
2023-05-02T19:08:04.091Z,6.00
2023-05-02T19:10:32.672Z,7.00
2023-05-02T19:13:00.704Z,4.00
2023-05-02T19:15:28.637Z,2.50
2023-05-02T19:17:56.783Z,1.00
2023-05-02T19:20:24.728Z,4.25
2023-05-02T19:22:57.770Z,6.00
2023-05-02T19:25:31.381Z,0.50
2023-05-02T19:27:59.371Z,6.00
2023-05-02T19:30:27.971Z,6.50
2023-05-02T19:32:56.090Z,4.00
2023-05-02T19:35:23.955Z,3.25
2023-05-02T19:37:51.905Z,3.50
2023-05-02T19:40:19.774Z,3.00
2023-05-02T19:42:48.027Z,3.00
2023-05-02T19:45:16.960Z,6.25
2023-05-02T19:47:45.797Z,5.50
2023-05-02T19:50:13.717Z,10.00
2023-05-02T19:52:43.068Z,1.00
2023-05-02T19:55:11.422Z,4.00
2023-05-02T19:57:40.967Z,3.00
2023-05-02T20:00:08.896Z,3.75
2023-05-02T20:02:36.796Z,3.00
2023-05-02T20:05:04.745Z,3.50
2023-05-02T20:07:32.891Z,4.00
2023-05-02T20:10:01.215Z,4.00
2023-05-02T20:12:29.273Z,2.00
2023-05-02T20:14:57.188Z,2.50
2023-05-02T20:17:25.421Z,5.50
2023-05-02T20:19:53.676Z,3.00
2023-05-02T20:22:21.485Z,4.00
2023-05-02T20:24:49.349Z,3.50
2023-05-02T20:27:17.349Z,6.80
2023-05-02T20:29:45.115Z,4.00
2023-05-02T20:32:13.611Z,3.75
2023-05-02T20:34:41.745Z,1.00
2023-05-02T20:37:10.421Z,4.80
2023-05-02T20:39:38.559Z,4.00
2023-05-02T20:42:06.426Z,3.00
2023-05-02T20:44:35.667Z,3.80
2023-05-02T20:47:04.202Z,3.00
2023-05-02T20:49:32.640Z,6.20
2023-05-02T20:52:00.464Z,2.20
2023-05-02T20:54:28.477Z,3.00
2023-05-02T20:56:56.723Z,2.80
2023-05-02T20:59:25.828Z,0.00
2023-05-02T21:01:53.712Z,3.00
2023-05-02T21:04:21.401Z,3.00
2023-05-02T21:06:49.296Z,4.00
2023-05-02T21:09:17.589Z,3.20
2023-05-02T21:11:46.227Z,3.20
2023-05-02T21:14:13.998Z,3.20
2023-05-02T21:16:41.749Z,3.00
2023-05-02T21:19:09.516Z,3.00
2023-05-02T21:21:37.785Z,0.60
2023-05-02T21:24:06.071Z,1.80
2023-05-02T21:26:33.737Z,1.00
2023-05-02T21:29:01.572Z,3.00
2023-05-02T21:31:29.286Z,3.20
2023-05-02T21:33:57.693Z,2.20
2023-05-02T21:36:25.409Z,2.60
2023-05-02T21:38:53.126Z,1.00
2023-05-02T21:41:20.969Z,4.00
2023-05-02T21:43:48.642Z,1.00
2023-05-02T21:46:16.802Z,3.40
2023-05-02T21:48:44.502Z,3.00
2023-05-02T21:51:13.968Z,1.00
2023-05-02T21:53:41.877Z,1.40
2023-05-02T21:56:09.938Z,3.20
2023-05-02T21:58:38.379Z,2.20
2023-05-02T22:01:06.476Z,2.60
2023-05-02T22:03:35.383Z,4.00
2023-05-02T22:06:06.692Z,1.00
2023-05-02T22:08:34.649Z,0.20
2023-05-02T22:11:02.720Z,4.80
2023-05-02T22:13:30.330Z,6.00
2023-05-02T22:15:57.962Z,3.00
2023-05-02T22:18:25.929Z,4.00
2023-05-02T22:20:54.247Z,1.00
2023-05-02T22:23:22.274Z,3.00
2023-05-02T22:25:50.208Z,5.00
2023-05-02T22:28:17.849Z,4.00
2023-05-02T22:30:45.591Z,6.20
2023-05-02T22:33:14.317Z,3.00
2023-05-02T22:35:42.498Z,4.00
2023-05-02T22:38:11.113Z,3.00
2023-05-02T22:40:38.683Z,2.60
2023-05-02T22:43:06.291Z,3.60
2023-05-02T22:45:34.068Z,3.80
2023-05-02T22:48:02.202Z,4.40
2023-05-02T22:50:30.299Z,1.80
2023-05-02T22:52:59.248Z,4.00
2023-05-02T22:55:26.886Z,3.20
2023-05-02T22:57:54.609Z,1.00
2023-05-02T23:00:23.204Z,5.20
2023-05-02T23:02:52.377Z,0.00
2023-05-02T23:05:20.058Z,2.20
2023-05-02T23:07:47.795Z,0.00
2023-05-02T23:10:15.530Z,3.80
2023-05-02T23:12:43.622Z,1.00
2023-05-02T23:15:11.305Z,3.40
2023-05-02T23:17:39.200Z,3.00
2023-05-02T23:20:06.814Z,0.40
2023-05-02T23:22:34.476Z,3.00
2023-05-02T23:25:02.726Z,5.60
2023-05-02T23:27:30.338Z,3.20
2023-05-02T23:29:57.970Z,3.00
2023-05-02T23:32:26.034Z,0.40
2023-05-02T23:34:53.671Z,4.40
2023-05-02T23:37:21.960Z,5.20
2023-05-02T23:39:49.561Z,0.80
2023-05-02T23:42:17.232Z,3.20
2023-05-02T23:44:44.994Z,3.00
2023-05-02T23:47:12.975Z,2.60
2023-05-02T23:49:41.040Z,3.00
2023-05-02T23:52:08.641Z,5.20
2023-05-02T23:54:36.203Z,3.80
2023-05-02T23:57:03.788Z,2.20
2023-05-02T23:59:31.424Z,3.20
